TimeEDT,TemperatureF,Dew PointF,Humidity,Sea Level PressureIn,VisibilityMPH,Wind Direction,Wind SpeedMPH,Gust SpeedMPH,PrecipitationIn,Events,Conditions,WindDirDegrees,DateUTC
12:15 AM,64.4,60.8,88,29.71,10.0,South,8.1,-,N/A,,Overcast,180,2013-09-22 04:15:00
12:35 AM,62.6,60.8,94,29.70,10.0,South,6.9,-,N/A,,Mostly Cloudy,180,2013-09-22 04:35:00
12:55 AM,64.4,60.8,88,29.69,10.0,South,8.1,-,N/A,,Mostly Cloudy,170,2013-09-22 04:55:00
1:15 AM,64.4,60.8,88,29.68,10.0,South,9.2,-,N/A,,Overcast,170,2013-09-22 05:15:00
1:35 AM,64.4,60.8,88,29.67,10.0,South,8.1,16.1,N/A,,Overcast,180,2013-09-22 05:35:00
2:15 AM,62.6,60.8,94,29.66,10.0,South,9.2,-,N/A,,Overcast,190,2013-09-22 06:15:00
2:35 AM,62.6,60.8,94,29.65,10.0,South,8.1,-,N/A,,Overcast,180,2013-09-22 06:35:00
2:55 AM,62.6,60.8,94,29.64,10.0,South,8.1,16.1,N/A,,Overcast,180,2013-09-22 06:55:00
3:15 AM,62.6,60.8,94,29.63,10.0,South,9.2,-,N/A,,Overcast,190,2013-09-22 07:15:00
3:35 AM,64.4,60.8,88,29.62,10.0,South,6.9,-,N/A,,Overcast,170,2013-09-22 07:35:00
3:55 AM,64.4,62.6,94,29.62,10.0,South,5.8,-,N/A,,Overcast,180,2013-09-22 07:55:00
4:15 AM,64.4,62.6,94,29.61,10.0,South,9.2,-,N/A,,Overcast,180,2013-09-22 08:15:00
4:35 AM,64.4,62.6,94,29.60,10.0,South,8.1,-,N/A,,Overcast,180,2013-09-22 08:35:00
4:55 AM,64.4,62.6,94,29.59,10.0,South,10.4,19.6,N/A,,Overcast,190,2013-09-22 08:55:00
5:16 AM,64.4,62.6,94,29.58,10.0,South,6.9,-,N/A,,Overcast,180,2013-09-22 09:16:00
5:35 AM,64.4,62.6,94,29.58,9.0,South,9.2,-,0.02,,Overcast,180,2013-09-22 09:35:00
5:55 AM,64.4,62.6,94,29.58,8.0,South,5.8,-,0.09,,Overcast,170,2013-09-22 09:55:00
6:15 AM,64.4,62.6,94,29.57,8.0,South,6.9,16.1,0.03,,Overcast,190,2013-09-22 10:15:00
6:35 AM,64.4,62.6,94,29.57,9.0,South,10.4,18.4,0.06,,Overcast,190,2013-09-22 10:35:00
6:55 AM,64.4,62.6,94,29.57,10.0,South,6.9,-,0.06,,Overcast,190,2013-09-22 10:55:00
7:15 AM,64.4,62.6,94,29.56,7.0,South,8.1,-,N/A,,Overcast,190,2013-09-22 11:15:00
7:35 AM,64.4,62.6,94,29.56,7.0,South,6.9,16.1,0.03,,Overcast,190,2013-09-22 11:35:00
7:55 AM,64.4,62.6,94,29.56,9.0,SW,10.4,18.4,0.07,,Overcast,220,2013-09-22 11:55:00
8:15 AM,64.4,62.6,94,29.55,10.0,SSW,5.8,-,0.03,,Overcast,200,2013-09-22 12:15:00
8:35 AM,64.4,62.6,94,29.55,3.0,South,8.1,20.7,0.28,Thunderstorm,Overcast,190,2013-09-22 12:35:00
8:55 AM,64.4,62.6,94,29.56,10.0,SSW,6.9,-,0.30,,Mostly Cloudy,200,2013-09-22 12:55:00
9:15 AM,64.4,62.6,94,29.57,9.0,SSW,9.2,-,0.02,,Overcast,200,2013-09-22 13:15:00
9:35 AM,64.4,62.6,94,29.57,10.0,South,6.9,-,0.04,,Overcast,190,2013-09-22 13:35:00
9:55 AM,64.4,62.6,94,29.57,9.0,SSW,5.8,-,0.07,,Overcast,200,2013-09-22 13:55:00
10:15 AM,64.4,62.6,94,29.56,9.0,SSW,5.8,-,0.03,,Overcast,210,2013-09-22 14:15:00
10:35 AM,64.4,62.6,94,29.56,10.0,SSW,8.1,-,0.05,,Overcast,200,2013-09-22 14:35:00
10:55 AM,64.4,62.6,94,29.56,10.0,SSW,6.9,-,0.05,,Overcast,210,2013-09-22 14:55:00
11:15 AM,64.4,62.6,94,29.57,10.0,SSW,8.1,-,N/A,,Mostly Cloudy,210,2013-09-22 15:15:00
11:35 AM,66.2,62.6,88,29.56,10.0,South,5.8,-,N/A,,Mostly Cloudy,190,2013-09-22 15:35:00
11:55 AM,66.2,62.6,88,29.57,10.0,SSW,6.9,-,N/A,,Mostly Cloudy,200,2013-09-22 15:55:00
12:15 PM,64.4,60.8,88,29.57,10.0,South,4.6,-,N/A,,Overcast,190,2013-09-22 16:15:00
12:35 PM,66.2,62.6,88,29.58,10.0,SSW,5.8,-,N/A,,Mostly Cloudy,200,2013-09-22 16:35:00
12:55 PM,66.2,62.6,88,29.57,10.0,SSW,4.6,-,N/A,,Mostly Cloudy,200,2013-09-22 16:55:00
1:15 PM,66.2,60.8,83,29.57,10.0,South,6.9,-,N/A,,Mostly Cloudy,180,2013-09-22 17:15:00
1:35 PM,68.0,62.6,83,29.56,10.0,SSE,5.8,-,N/A,,Mostly Cloudy,160,2013-09-22 17:35:00
1:55 PM,68.0,60.8,78,29.56,10.0,SSE,5.8,-,N/A,,Partly Cloudy,160,2013-09-22 17:55:00
2:15 PM,66.2,60.8,83,29.55,10.0,South,3.5,-,N/A,,Mostly Cloudy,190,2013-09-22 18:15:00
2:35 PM,69.8,60.8,73,29.55,10.0,South,4.6,-,N/A,,Overcast,190,2013-09-22 18:35:00
2:55 PM,69.8,62.6,78,29.54,10.0,SSW,6.9,-,N/A,,Mostly Cloudy,200,2013-09-22 18:55:00
3:15 PM,69.8,60.8,73,29.54,10.0,SSW,8.1,-,N/A,,Mostly Cloudy,200,2013-09-22 19:15:00
3:35 PM,69.8,60.8,73,29.55,10.0,SW,15.0,19.6,N/A,,Overcast,230,2013-09-22 19:35:00
3:55 PM,64.4,59.0,83,29.55,8.0,Calm,Calm,-,0.09,,Mostly Cloudy,0,2013-09-22 19:55:00
4:15 PM,64.4,59.0,83,29.55,10.0,West,3.5,-,N/A,,Mostly Cloudy,260,2013-09-22 20:15:00
4:35 PM,64.4,60.8,88,29.56,10.0,Calm,Calm,-,N/A,,Overcast,0,2013-09-22 20:35:00
4:55 PM,66.2,59.0,78,29.57,10.0,WNW,6.9,-,N/A,,Overcast,300,2013-09-22 20:55:00
5:15 PM,64.4,55.4,73,29.58,10.0,WNW,9.2,-,N/A,,Overcast,300,2013-09-22 21:15:00
5:35 PM,62.6,51.8,68,29.59,10.0,WNW,13.8,19.6,N/A,,Overcast,300,2013-09-22 21:35:00
5:55 PM,62.6,51.8,68,29.60,10.0,WNW,9.2,20.7,N/A,,Overcast,300,2013-09-22 21:55:00
6:15 PM,60.8,50.0,68,29.61,10.0,NW,10.4,18.4,N/A,,Overcast,310,2013-09-22 22:15:00
6:35 PM,60.8,48.2,63,29.62,10.0,WNW,9.2,-,N/A,,Overcast,290,2013-09-22 22:35:00
6:55 PM,60.8,48.2,63,29.63,10.0,WNW,9.2,-,N/A,,Mostly Cloudy,300,2013-09-22 22:55:00
7:15 PM,59.0,48.2,67,29.64,10.0,WNW,8.1,17.3,N/A,,Mostly Cloudy,300,2013-09-22 23:15:00
7:35 PM,59.0,48.2,67,29.65,10.0,WNW,8.1,-,N/A,,Overcast,300,2013-09-22 23:35:00
7:55 PM,57.2,46.4,67,29.65,10.0,West,9.2,18.4,N/A,,Mostly Cloudy,280,2013-09-22 23:55:00
8:15 PM,57.2,46.4,67,29.66,10.0,West,11.5,-,N/A,,Mostly Cloudy,280,2013-09-23 00:15:00
8:35 PM,57.2,44.6,63,29.66,10.0,WNW,9.2,17.3,N/A,,Overcast,300,2013-09-23 00:35:00
8:55 PM,57.2,44.6,63,29.67,10.0,WNW,10.4,-,N/A,,Overcast,300,2013-09-23 00:55:00
9:15 PM,55.4,44.6,67,29.68,10.0,WNW,10.4,-,N/A,,Overcast,300,2013-09-23 01:15:00
9:35 PM,55.4,44.6,67,29.68,10.0,WNW,8.1,-,N/A,,Overcast,290,2013-09-23 01:35:00
9:55 PM,55.4,44.6,67,29.69,10.0,WNW,5.8,-,N/A,,Overcast,300,2013-09-23 01:55:00
10:15 PM,55.4,44.6,67,29.70,10.0,West,8.1,-,N/A,,Overcast,280,2013-09-23 02:15:00
10:35 PM,53.6,44.6,72,29.70,10.0,WNW,6.9,-,N/A,,Mostly Cloudy,300,2013-09-23 02:35:00
10:55 PM,53.6,44.6,72,29.71,10.0,West,6.9,-,N/A,,Scattered Clouds,280,2013-09-23 02:55:00
11:15 PM,51.8,44.6,76,29.71,10.0,WNW,6.9,-,N/A,,Clear,300,2013-09-23 03:15:00
11:35 PM,51.8,42.8,71,29.71,10.0,WNW,6.9,-,N/A,,Partly Cloudy,300,2013-09-23 03:35:00
11:55 PM,51.8,42.8,71,29.71,10.0,NNW,4.6,-,N/A,,Partly Cloudy,330,2013-09-23 03:55:00